Time;durP1;ratioP1;P1;durP2;ratioP2;P2;SDS_P1;SDS_P2;PMS_P1;PMS_P2;Temp;Humidity;BMP_temperature;BMP_pressure;BME280_temperature;BME280_humidity;BME280_pressure;Samples;Min_cycle;Max_cycle;Signal;HPM_P1;HPM_P2
2022/07/21 07:58:58;;;;;;;12.18;10.88;;;;;;;20.47;83.84;101604.44;5316016;27;20701;-70
2022/07/21 08:01:29;;;;;;;11.85;10.68;;;;;;;20.84;82.49;101600.78;5300190;28;20044;-71
2022/07/21 08:04:01;;;;;;;12.63;9.80;;;;;;;21.01;80.97;101591.38;5301065;28;20058;-70
2022/07/21 08:06:32;;;;;;;9.38;8.48;;;;;;;21.09;80.96;101600.94;5301147;28;20428;-72
2022/07/21 08:09:04;;;;;;;9.13;8.25;;;;;;;20.74;83.29;101601.16;5299148;28;20026;-73
2022/07/21 08:11:35;;;;;;;9.32;8.35;;;;;;;20.87;82.19;101606.91;5300831;28;20028;-70
2022/07/21 08:14:06;;;;;;;9.45;7.82;;;;;;;20.59;84.19;101599.75;5297276;28;20048;-70
2022/07/21 08:16:38;;;;;;;18.25;16.55;;;;;;;20.32;86.78;101601.00;5300445;28;20174;-69
2022/07/21 08:19:09;;;;;;;9.93;8.80;;;;;;;20.59;85.76;101604.56;5300745;28;20020;-70
2022/07/21 08:21:42;;;;;;;9.02;8.10;;;;;;;20.51;86.07;101603.41;5300002;28;20029;-69
2022/07/21 08:24:13;;;;;;;8.02;7.22;;;;;;;20.41;86.58;101598.16;5300410;28;20396;-69
2022/07/21 08:26:45;;;;;;;7.97;6.97;;;;;;;20.57;85.15;101598.44;5300593;28;20028;-68
2022/07/21 08:29:16;;;;;;;6.97;6.28;;;;;;;20.39;85.41;101612.56;5300213;28;20047;-69
2022/07/21 08:31:47;;;;;;;7.50;6.80;;;;;;;20.56;85.41;101605.25;5300605;28;20020;-69
2022/07/21 08:34:19;;;;;;;7.88;6.38;;;;;;;20.73;84.85;101599.50;5300511;28;20032;-69
2022/07/21 08:36:50;;;;;;;7.75;7.13;;;;;;;20.45;86.20;101606.75;5296827;28;20027;-70
2022/07/21 08:39:21;;;;;;;7.88;7.07;;;;;;;20.56;86.25;101606.06;5299651;28;20050;-69
2022/07/21 08:41:53;;;;;;;7.32;6.63;;;;;;;20.64;85.64;101607.19;5300612;28;20031;-69
2022/07/21 08:44:25;;;;;;;7.40;6.70;;;;;;;20.48;86.51;101611.72;5298694;28;20016;-69
2022/07/21 08:46:57;;;;;;;7.40;6.80;;;;;;;20.53;87.69;101605.88;5299160;28;20029;-69
2022/07/21 08:49:29;;;;;;;8.50;6.57;;;;;;;20.76;85.58;101604.47;5299171;28;20383;-68
2022/07/21 08:52:00;;;;;;;8.63;7.78;;;;;;;20.41;87.89;101615.88;5299781;28;20468;-69
2022/07/21 08:54:32;;;;;;;7.03;6.32;;;;;;;20.60;85.72;101611.84;5300490;28;20032;-69
2022/07/21 08:57:03;;;;;;;8.18;7.47;;;;;;;20.58;87.21;101612.22;5302838;28;20048;-69
2022/07/21 08:59:35;;;;;;;7.38;6.68;;;;;;;20.65;85.95;101611.66;5301912;28;20028;-71
2022/07/21 09:02:25;;;;;;;7.97;7.18;;;;;;;20.65;86.41;101614.47;5300441;28;20054;-69
2022/07/21 09:04:57;;;;;;;8.10;7.30;;;;;;;20.69;86.99;101614.63;5299153;28;20030;-70
2022/07/21 09:07:28;;;;;;;8.82;8.05;;;;;;;20.43;89.27;101612.75;5317799;28;20467;-70
2022/07/21 09:10:01;;;;;;;10.48;9.55;;;;;;;20.49;89.63;101611.38;5309039;28;20093;-70
2022/07/21 09:12:48;;;;;;;9.48;7.35;;;;;;;20.82;86.57;101607.94;5306526;28;20024;-71
2022/07/21 09:15:21;;;;;;;7.40;6.70;;;;;;;20.87;86.32;101615.38;5305424;28;20030;-69
2022/07/21 09:18:14;;;;;;;8.13;7.40;;;;;;;20.54;89.33;101616.84;5305400;28;20071;-70
2022/07/21 09:20:51;;;;;;;9.38;8.50;;;;;;;20.42;89.08;101617.53;5294062;28;20107;-70
2022/07/21 09:23:23;;;;;;;8.15;7.28;;;;;;;20.60;88.49;101620.31;5306449;28;20016;-70
2022/07/21 09:25:58;;;;;;;8.10;7.40;;;;;;;20.71;88.16;101626.38;5305905;28;20016;-71
2022/07/21 09:28:30;;;;;;;7.05;6.45;;;;;;;20.63;87.19;101625.25;5306931;28;20383;-70
2022/07/21 09:31:07;;;;;;;7.35;6.47;;;;;;;20.83;86.64;101630.13;5307110;28;20020;-70
2022/07/21 09:33:44;;;;;;;6.43;5.68;;;;;;;20.85;86.09;101630.59;5306309;28;20024;-70
2022/07/21 09:36:17;;;;;;;5.47;5.07;;;;;;;20.59;86.34;101635.56;5304706;28;20166;-70
2022/07/21 09:38:51;;;;;;;6.35;5.13;;;;;;;20.53;86.95;101634.06;5294232;28;20366;-69
2022/07/21 09:41:24;;;;;;;8.75;5.38;;;;;;;20.66;87.12;101635.03;5297309;28;20097;-68
2022/07/21 09:43:57;;;;;;;4.65;4.25;;;;;;;20.52;86.68;101638.06;5304441;28;20472;-70
2022/07/21 09:46:29;;;;;;;4.32;3.92;;;;;;;20.10;87.78;101637.88;5284973;28;20416;-70
2022/07/21 09:49:02;;;;;;;5.15;4.65;;;;;;;20.30;87.67;101637.16;5285088;28;20477;-68
2022/07/21 09:51:41;;;;;;;4.95;4.40;;;;;;;20.35;86.51;101639.78;5284655;28;20203;-69
2022/07/21 09:54:13;;;;;;;9.55;8.70;;;;;;;20.02;88.67;101639.56;5297339;28;20032;-69
2022/07/21 09:56:45;;;;;;;6.55;5.80;;;;;;;19.92;90.03;101635.09;5303095;28;20048;-68
2022/07/21 09:59:17;;;;;;;6.93;4.18;;;;;;;20.56;87.59;101644.72;5300491;28;20040;-68
2022/07/21 10:01:50;;;;;;;7.00;5.22;;;;;;;20.17;88.93;101649.44;5297907;28;20021;-71
2022/07/21 10:04:24;;;;;;;5.35;4.80;;;;;;;20.01;90.26;101653.97;5298136;28;20052;-70
2022/07/21 10:06:56;;;;;;;5.47;4.93;;;;;;;19.88;88.41;101653.00;5297849;28;20139;-72
2022/07/21 10:09:28;;;;;;;5.80;4.80;;;;;;;20.16;89.94;101648.63;5292570;28;20052;-71
2022/07/21 10:12:01;;;;;;;4.55;4.15;;;;;;;20.25;88.33;101657.06;5294113;28;20521;-71
2022/07/21 10:14:32;;;;;;;5.72;5.25;;;;;;;20.23;88.61;101662.19;5294241;28;20017;-71
2022/07/21 10:17:04;;;;;;;5.18;4.78;;;;;;;20.09;88.28;101659.56;5307940;28;20055;-72
2022/07/21 10:20:07;;;;;;;4.68;4.25;;;;;;;20.41;87.39;101660.97;5306134;28;20024;-72
2022/07/21 10:22:57;;;;;;;8.45;5.57;;;;;;;20.48;86.85;101676.50;5304926;28;20032;-72
2022/07/21 10:25:29;;;;;;;5.20;4.80;;;;;;;20.36;87.06;101672.41;5305866;28;20032;-71
2022/07/21 10:28:18;;;;;;;7.68;6.97;;;;;;;20.41;86.97;101672.22;5298339;28;20443;-70
2022/07/21 10:30:53;;;;;;;6.20;5.70;;;;;;;20.31;89.07;101675.41;5305221;28;20028;-71
2022/07/21 10:33:43;;;;;;;8.20;6.00;;;;;;;20.35;88.33;101681.19;5304314;28;20056;-70
2022/07/21 10:36:26;;;;;;;7.35;6.65;;;;;;;20.30;90.05;101685.03;5286443;28;20131;-71
2022/07/21 10:39:06;;;;;;;7.55;6.75;;;;;;;20.32;90.07;101685.50;5304524;28;20486;-71
2022/07/21 10:41:40;;;;;;;7.25;6.63;;;;;;;20.31;89.01;101688.69;5284040;28;20040;-69
2022/07/21 10:44:27;;;;;;;7.13;6.45;;;;;;;20.29;90.25;101683.38;5292323;28;20429;-71
2022/07/21 10:47:12;;;;;;;7.82;6.88;;;;;;;20.26;90.03;101686.88;5305382;28;20552;-71
2022/07/21 10:49:57;;;;;;;7.30;6.60;;;;;;;20.19;89.40;101689.34;5304700;28;20387;-71
2022/07/21 10:52:49;;;;;;;6.28;5.60;;;;;;;20.19;88.39;101692.19;5304992;28;20073;-70
2022/07/21 10:55:28;;;;;;;6.43;5.22;;;;;;;19.86;87.47;101689.06;5294398;28;20123;-71
2022/07/21 10:58:26;;;;;;;7.00;5.88;;;;;;;20.02;88.90;101695.00;5303341;28;20048;-71
2022/07/21 11:00:58;;;;;;;9.18;5.80;;;;;;;19.61;88.29;101690.72;5305046;28;20039;-71
2022/07/21 11:03:38;;;;;;;5.25;4.85;;;;;;;19.90;88.20;101702.16;5303669;28;20020;-71
2022/07/21 11:06:14;;;;;;;6.25;5.45;;;;;;;19.99;87.71;101693.69;5304703;28;20035;-71
2022/07/21 11:09:06;;;;;;;7.90;6.72;;;;;;;19.89;88.79;101700.53;5304647;28;20028;-69
2022/07/21 11:11:58;;;;;;;11.93;10.82;;;;;;;19.96;88.93;101700.81;5304227;28;20050;-71
2022/07/21 11:14:36;;;;;;;9.25;6.78;;;;;;;19.98;88.42;101698.50;5304538;28;20031;-72
2022/07/21 11:17:10;;;;;;;9.57;8.60;;;;;;;19.92;87.82;101705.47;5303760;28;20395;-71
2022/07/21 11:19:52;;;;;;;6.85;5.57;;;;;;;20.00;87.60;101700.19;5304390;28;20020;-71
2022/07/21 11:22:26;;;;;;;6.05;5.55;;;;;;;20.19;86.85;101700.63;5303616;28;20124;-71
2022/07/21 11:25:00;;;;;;;5.63;5.10;;;;;;;20.09;85.67;101710.25;5303777;28;20383;-70
2022/07/21 11:27:37;;;;;;;5.63;5.13;;;;;;;20.14;87.50;101701.63;5295110;28;20043;-70
2022/07/21 11:30:09;;;;;;;11.27;5.57;;;;;;;20.04;86.80;101707.59;5282842;28;20051;-70
2022/07/21 11:32:47;;;;;;;7.97;5.82;;;;;;;20.16;86.42;101712.56;5282203;28;20025;-70
2022/07/21 11:35:18;;;;;;;6.10;5.38;;;;;;;20.22;85.92;101719.66;5295637;28;20040;-71
2022/07/21 11:37:49;;;;;;;7.13;6.43;;;;;;;20.01;86.97;101724.34;5304356;28;20120;-71
2022/07/21 11:40:21;;;;;;;6.45;5.55;;;;;;;19.84;86.27;101719.53;5303203;28;20024;-70
2022/07/21 11:42:53;;;;;;;7.72;5.85;;;;;;;19.65;86.82;101719.84;5304334;28;20106;-71
2022/07/21 11:45:28;;;;;;;7.85;6.25;;;;;;;19.77;87.67;101722.88;5302456;28;20743;-70
2022/07/21 11:48:00;;;;;;;7.65;6.70;;;;;;;19.85;88.60;101726.84;5304151;28;20418;-71
2022/07/21 11:50:31;;;;;;;7.75;5.40;;;;;;;19.37;90.43;101728.59;5303673;28;20028;-71
2022/07/21 11:53:04;;;;;;;7.43;6.50;;;;;;;19.44;90.83;101726.13;5303315;28;20025;-71
2022/07/21 11:55:35;;;;;;;6.00;5.50;;;;;;;19.59;90.60;101729.63;5303941;28;20028;-71
2022/07/21 11:58:13;;;;;;;6.97;6.28;;;;;;;19.36;92.01;101729.75;5301116;28;20108;-71
2022/07/21 12:00:46;;;;;;;7.63;6.65;;;;;;;19.46;92.65;101732.25;5287612;28;20049;-71
2022/07/21 12:03:17;;;;;;;8.18;7.38;;;;;;;19.61;92.68;101730.09;5282907;28;20021;-72
2022/07/21 12:05:48;;;;;;;7.63;6.78;;;;;;;19.65;91.75;101728.28;5282470;28;20025;-71
2022/07/21 12:08:20;;;;;;;8.30;7.35;;;;;;;19.69;91.24;101723.69;5282187;28;20452;-70
2022/07/21 12:11:05;;;;;;;6.15;5.55;;;;;;;19.83;90.13;101718.72;5282692;28;20028;-72
2022/07/21 12:13:52;;;;;;;16.60;14.45;;;;;;;19.80;91.45;101719.38;5302812;28;20020;-71
2022/07/21 12:16:24;;;;;;;6.75;6.15;;;;;;;19.82;90.96;101725.53;5303202;28;20061;-79
2022/07/21 12:19:10;;;;;;;6.28;5.68;;;;;;;19.86;90.75;101729.31;5303740;28;20061;-71
2022/07/21 12:21:46;;;;;;;5.72;5.30;;;;;;;19.72;90.77;101723.03;5302984;28;20028;-72
2022/07/21 12:24:19;;;;;;;5.85;5.22;;;;;;;19.80;91.50;101727.84;5303577;28;20031;-72
2022/07/21 12:26:50;;;;;;;5.28;4.72;;;;;;;19.81;90.58;101718.22;5303623;28;20028;-71
2022/07/21 12:29:26;;;;;;;4.93;4.25;;;;;;;19.94;90.49;101730.47;5301960;28;20020;-71
2022/07/21 12:31:57;;;;;;;5.68;4.63;;;;;;;19.93;90.85;101735.28;5295937;28;20024;-71
2022/07/21 12:34:29;;;;;;;5.78;4.68;;;;;;;19.88;90.45;101723.34;5302462;28;20077;-72
2022/07/21 12:37:00;;;;;;;4.82;4.35;;;;;;;19.94;90.33;101725.69;5295810;28;20067;-72
2022/07/21 12:42:35;;;;;;;5.93;4.97;;;;;;;19.93;91.54;101738.09;5286622;28;20485;-72
2022/07/21 12:45:52;;;;;;;5.50;5.00;;;;;;;19.98;91.99;101734.28;5305221;28;20050;-72
2022/07/21 12:48:31;;;;;;;6.90;4.32;;;;;;;19.95;91.92;101724.50;5291381;28;20044;-72
2022/07/21 12:51:06;;;;;;;5.68;4.15;;;;;;;19.90;91.06;101730.31;5307457;28;20543;-72
2022/07/21 12:53:44;;;;;;;4.60;4.20;;;;;;;19.94;90.70;101736.94;5305603;28;20024;-72
2022/07/21 12:56:32;;;;;;;5.10;4.38;;;;;;;19.91;90.87;101740.41;5306296;28;20391;-72
2022/07/21 12:59:04;;;;;;;9.98;8.98;;;;;;;19.83;91.27;101731.97;5306783;28;20052;-72
2022/07/21 13:01:35;;;;;;;5.40;4.50;;;;;;;19.74;92.48;101731.97;5307456;28;20348;-71
2022/07/21 13:04:06;;;;;;;4.38;4.03;;;;;;;19.87;92.08;101730.97;5305730;28;20020;-72
2022/07/21 13:06:37;;;;;;;4.50;3.95;;;;;;;19.70;92.08;101745.03;5306931;28;20106;-73
2022/07/21 13:09:09;;;;;;;5.93;3.45;;;;;;;19.70;92.21;101745.03;5306561;28;20069;-76
2022/07/21 13:11:40;;;;;;;3.85;3.55;;;;;;;19.88;91.66;101748.69;5305657;28;20104;-73
2022/07/21 13:14:11;;;;;;;4.13;3.72;;;;;;;19.89;91.90;101741.88;5293095;28;20023;-72
2022/07/21 13:16:43;;;;;;;5.80;4.40;;;;;;;19.60;91.08;101742.53;5285028;28;20165;-72
2022/07/21 13:19:14;;;;;;;8.95;4.50;;;;;;;19.73;91.49;101745.19;5296909;28;20027;-72
2022/07/21 13:21:45;;;;;;;4.70;3.03;;;;;;;19.92;90.20;101749.69;5306545;28;20105;-72
2022/07/21 13:24:17;;;;;;;3.65;3.10;;;;;;;19.89;90.61;101745.56;5305355;28;20020;-71
2022/07/21 13:26:48;;;;;;;4.03;2.60;;;;;;;19.95;89.04;101746.22;5305384;28;20425;-72
2022/07/21 13:29:20;;;;;;;2.95;2.72;;;;;;;19.82;89.91;101756.47;5303670;28;20101;-72
2022/07/21 13:31:51;;;;;;;4.07;3.08;;;;;;;19.58;90.92;101756.09;5300279;28;20029;-72
2022/07/21 13:34:23;;;;;;;4.30;2.60;;;;;;;19.58;91.23;101762.53;5301313;28;20025;-72
2022/07/21 13:36:54;;;;;;;5.00;2.45;;;;;;;19.66;91.25;101758.94;5305070;28;20158;-72
2022/07/21 13:39:26;;;;;;;3.55;3.08;;;;;;;19.69;92.57;101757.47;5301880;28;20016;-72
2022/07/21 13:41:57;;;;;;;3.42;3.10;;;;;;;19.66;92.31;101764.56;5299334;28;20024;-72
2022/07/21 13:44:29;;;;;;;4.45;3.00;;;;;;;19.70;91.44;101753.50;5293489;28;20085;-72
2022/07/21 13:47:00;;;;;;;6.97;4.15;;;;;;;19.80;92.00;101758.78;5305203;28;20491;-72
2022/07/21 13:49:32;;;;;;;4.03;3.40;;;;;;;19.88;91.37;101762.75;5305536;28;20023;-71
2022/07/21 13:52:03;;;;;;;5.40;3.28;;;;;;;19.93;90.77;101763.41;5286101;28;20101;-70
2022/07/21 13:54:35;;;;;;;4.00;2.97;;;;;;;20.04;90.10;101757.47;5291381;28;20383;-70
2022/07/21 13:57:06;;;;;;;4.55;3.22;;;;;;;20.11;89.35;101757.78;5302879;28;20048;-70
2022/07/21 13:59:38;;;;;;;4.72;3.30;;;;;;;20.13;88.52;101755.47;5285678;28;20055;-70
2022/07/21 14:02:09;;;;;;;4.65;3.75;;;;;;;19.91;88.70;101750.84;5284866;28;20017;-70
2022/07/21 14:04:42;;;;;;;5.53;3.95;;;;;;;19.80;90.00;101760.78;5284160;28;20142;-70
2022/07/21 14:07:14;;;;;;;6.20;4.35;;;;;;;19.66;89.16;101758.94;5289097;28;20025;-71
2022/07/21 14:09:45;;;;;;;5.20;3.55;;;;;;;19.77;90.62;101759.47;5300379;28;20034;-71
2022/07/21 14:12:18;;;;;;;6.30;3.90;;;;;;;19.73;91.08;101752.81;5299256;28;20028;-71
2022/07/21 14:14:49;;;;;;;5.88;3.95;;;;;;;19.77;90.35;101759.47;5295222;28;20016;-70
2022/07/21 14:17:20;;;;;;;14.15;11.13;;;;;;;19.71;89.94;101777.66;5305433;28;20024;-71
2022/07/21 14:19:52;;;;;;;13.88;12.45;;;;;;;19.80;90.60;101770.03;5304075;28;20035;-71
2022/07/21 14:22:23;;;;;;;10.60;9.45;;;;;;;19.57;90.65;101779.75;5293071;28;20037;-71
2022/07/21 14:27:46;;;;;;;6.95;6.25;;;;;;;19.74;90.37;101769.38;5283742;28;20123;-70
2022/07/21 14:30:19;;;;;;;8.82;6.43;;;;;;;19.82;91.49;101773.38;5300120;28;20099;-70
2022/07/21 14:32:50;;;;;;;9.02;5.32;;;;;;;19.75;92.02;101773.84;5305179;28;20039;-71
2022/07/21 14:35:23;;;;;;;7.82;3.97;;;;;;;19.94;90.11;101779.16;5304435;28;20023;-69
2022/07/21 14:37:54;;;;;;;6.90;4.35;;;;;;;19.78;90.29;101780.81;5298842;28;20028;-69
2022/07/21 14:40:25;;;;;;;5.45;4.53;;;;;;;19.74;90.51;101783.47;5284076;28;20028;-70
2022/07/21 14:42:57;;;;;;;8.23;3.92;;;;;;;19.59;89.94;101791.53;5283235;28;20020;-70
2022/07/21 14:45:28;;;;;;;11.07;4.72;;;;;;;19.21;91.18;101790.09;5284763;28;20024;-71
2022/07/21 14:47:59;;;;;;;6.75;4.45;;;;;;;19.24;92.49;101791.41;5286142;28;20063;-70
2022/07/21 14:50:30;;;;;;;10.27;5.43;;;;;;;19.33;93.03;101795.91;5284130;28;20020;-70
2022/07/21 14:53:02;;;;;;;15.50;12.27;;;;;;;19.50;92.34;101797.94;5297436;28;20024;-70
2022/07/21 14:55:33;;;;;;;12.18;10.93;;;;;;;19.55;92.12;101797.78;5303376;28;20080;-70
2022/07/21 14:58:11;;;;;;;6.10;5.50;;;;;;;19.77;90.82;101804.47;5295431;28;20048;-70
2022/07/21 15:00:43;;;;;;;9.45;5.90;;;;;;;19.71;90.67;101805.78;5283785;28;20476;-72
2022/07/21 15:03:14;;;;;;;7.00;5.93;;;;;;;19.66;91.17;101800.28;5290957;28;20067;-72
2022/07/21 15:05:46;;;;;;;7.88;6.10;;;;;;;19.70;91.60;101804.13;5304364;28;20031;-71
2022/07/21 15:08:17;;;;;;;7.68;5.32;;;;;;;19.73;90.70;101797.84;5304144;28;20443;-71
2022/07/21 15:10:49;;;;;;;8.10;4.95;;;;;;;19.85;90.43;101805.66;5303561;28;20032;-71
2022/07/21 15:13:20;;;;;;;7.57;4.70;;;;;;;19.61;90.38;101801.28;5304751;28;20459;-71
2022/07/21 15:15:51;;;;;;;6.43;5.05;;;;;;;19.75;89.55;101804.81;5304454;28;20505;-71
2022/07/21 15:18:23;;;;;;;6.63;5.45;;;;;;;19.66;89.62;101805.91;5303048;28;20027;-71
2022/07/21 15:20:54;;;;;;;12.52;9.73;;;;;;;19.44;89.84;101815.31;5304621;28;20063;-71
2022/07/21 15:23:25;;;;;;;14.95;11.82;;;;;;;19.51;90.57;101808.06;5303314;28;20135;-70
2022/07/21 15:25:57;;;;;;;9.63;6.97;;;;;;;19.55;90.93;101803.41;5304311;28;20095;-70
2022/07/21 15:28:28;;;;;;;7.95;6.25;;;;;;;19.58;90.66;101806.72;5304256;28;20020;-71
2022/07/21 15:30:59;;;;;;;8.88;7.57;;;;;;;19.51;89.69;101801.59;5303407;28;20023;-71
2022/07/21 15:33:31;;;;;;;11.20;8.30;;;;;;;19.53;90.18;101811.38;5304215;28;20020;-70
2022/07/21 15:36:03;;;;;;;11.40;10.10;;;;;;;19.46;90.29;101811.00;5304024;28;20321;-72
2022/07/21 15:38:35;;;;;;;11.43;9.80;;;;;;;19.42;90.22;101804.38;5303045;28;20467;-71
2022/07/21 15:41:06;;;;;;;8.93;7.95;;;;;;;19.41;88.83;101816.78;5301576;28;20074;-69
2022/07/21 15:43:37;;;;;;;9.35;7.63;;;;;;;19.21;89.42;101815.41;5282627;28;20353;-68
2022/07/21 15:46:09;;;;;;;10.10;8.48;;;;;;;19.08;89.68;101817.16;5284360;28;20371;-70
2022/07/21 15:48:40;;;;;;;9.50;7.80;;;;;;;19.21;90.29;101823.00;5295631;28;20028;-70
2022/07/21 15:51:11;;;;;;;9.18;8.27;;;;;;;19.03;90.03;101814.50;5290195;28;20020;-74
2022/07/21 15:53:43;;;;;;;7.68;6.93;;;;;;;19.16;90.77;101818.34;5292756;28;20074;-75
2022/07/21 15:56:14;;;;;;;8.98;7.82;;;;;;;19.20;90.55;101824.16;5303717;28;20471;-74
2022/07/21 16:01:35;;;;;;;10.73;9.75;;;;;;;19.30;90.44;101821.03;5304396;28;20024;-75
2022/07/21 16:04:06;;;;;;;9.02;6.68;;;;;;;19.18;90.01;101824.47;5303913;28;20016;-74
2022/07/21 16:06:38;;;;;;;12.10;8.32;;;;;;;19.20;90.06;101821.34;5302948;28;20356;-73
2022/07/21 16:09:09;;;;;;;7.32;6.40;;;;;;;18.96;91.32;101825.38;5303883;28;20133;-73
2022/07/21 16:11:41;;;;;;;8.38;6.72;;;;;;;19.05;91.82;101829.06;5303590;28;20028;-73
2022/07/21 16:14:12;;;;;;;9.88;7.00;;;;;;;19.16;91.46;101829.59;5302416;28;20085;-74
2022/07/21 16:16:43;;;;;;;8.05;6.00;;;;;;;19.15;91.41;101827.09;5302793;28;20038;-74
2022/07/21 16:19:15;;;;;;;7.22;6.28;;;;;;;19.17;91.96;101820.00;5302871;28;20659;-74
2022/07/21 16:21:47;;;;;;;10.43;5.88;;;;;;;18.87;92.43;101827.31;5305062;28;20502;-74
2022/07/21 16:24:19;;;;;;;9.38;5.72;;;;;;;18.77;93.13;101827.59;5305581;28;20722;-74
2022/07/21 16:26:51;;;;;;;8.02;5.88;;;;;;;18.93;93.46;101828.84;5305293;28;20111;-74
2022/07/21 16:29:23;;;;;;;8.82;5.63;;;;;;;18.84;93.70;101830.75;5306177;28;20065;-74
2022/07/21 16:32:01;;;;;;;33.08;29.60;;;;;;;18.96;93.25;101832.97;5306106;28;20028;-74
2022/07/21 16:34:33;;;;;;;10.30;6.63;;;;;;;18.86;93.80;101843.34;5306237;28;20052;-73
2022/07/21 16:37:06;;;;;;;8.38;4.93;;;;;;;18.71;93.04;101842.88;5307809;28;20043;-73
2022/07/21 16:39:37;;;;;;;7.35;3.80;;;;;;;18.74;93.36;101845.91;5307899;28;20066;-74
2022/07/21 16:42:09;;;;;;;7.65;3.75;;;;;;;18.65;92.87;101842.19;5307143;28;20024;-72
2022/07/21 16:44:40;;;;;;;10.70;3.03;;;;;;;18.72;92.83;101850.19;5307437;28;20032;-74
2022/07/21 16:47:12;;;;;;;8.77;4.47;;;;;;;18.72;93.68;101853.00;5307834;28;20032;-73
2022/07/21 16:49:43;;;;;;;9.38;4.18;;;;;;;18.63;93.64;101852.91;5306683;28;20015;-74
2022/07/21 16:52:14;;;;;;;8.07;3.15;;;;;;;18.59;94.19;101852.72;5307630;28;20024;-74
2022/07/21 16:54:46;;;;;;;6.47;3.63;;;;;;;18.49;95.64;101857.78;5306497;28;20123;-75
2022/07/21 16:57:17;;;;;;;12.27;7.70;;;;;;;18.44;96.15;101864.34;5307162;28;20059;-74
2022/07/21 16:59:48;;;;;;;9.18;6.85;;;;;;;18.34;96.68;101859.00;5307589;28;20032;-74
2022/07/21 17:02:20;;;;;;;10.25;3.97;;;;;;;18.50;96.52;101865.88;5306598;28;20064;-73
2022/07/21 17:04:51;;;;;;;8.63;4.65;;;;;;;18.47;97.94;101864.53;5307287;28;20122;-74
2022/07/21 17:07:22;;;;;;;7.30;3.90;;;;;;;18.52;97.44;101869.19;5307395;28;20043;-74
2022/07/21 17:09:54;;;;;;;4.53;3.05;;;;;;;18.43;97.09;101880.38;5306479;28;20020;-73
2022/07/21 17:12:25;;;;;;;5.88;2.92;;;;;;;18.19;97.38;101872.22;5305360;28;20043;-74
2022/07/21 17:14:57;;;;;;;13.15;9.45;;;;;;;18.35;97.36;101872.69;5291737;28;20025;-73
2022/07/21 17:17:28;;;;;;;6.18;3.20;;;;;;;18.39;97.80;101870.09;5285007;28;20514;-74
2022/07/21 17:19:59;;;;;;;6.80;3.38;;;;;;;18.54;98.15;101874.50;5299770;28;20452;-73
2022/07/21 17:22:31;;;;;;;6.47;3.17;;;;;;;18.51;96.80;101875.97;5307103;28;20032;-74
2022/07/21 17:25:04;;;;;;;4.28;2.88;;;;;;;18.45;96.35;101882.84;5304078;28;20028;-73
2022/07/21 17:27:36;;;;;;;4.35;3.10;;;;;;;18.33;97.65;101886.25;5288880;28;20025;-74
2022/07/21 17:30:08;;;;;;;8.13;4.25;;;;;;;18.19;98.77;101883.47;5284622;28;20104;-74
